sensor_id;sensor_type;location;lat;lon;timestamp;temperature;humidity
3454;DHT22;1741;51.294;8.608;2024-03-02T00:00:41;4.00;99.90
3454;DHT22;1741;51.294;8.608;2024-03-02T00:03:08;3.90;99.90
3454;DHT22;1741;51.294;8.608;2024-03-02T00:05:38;3.90;99.90
3454;DHT22;1741;51.294;8.608;2024-03-02T00:08:06;3.90;99.90
3454;DHT22;1741;51.294;8.608;2024-03-02T00:10:40;3.80;99.90
3454;DHT22;1741;51.294;8.608;2024-03-02T00:13:08;3.80;99.90
3454;DHT22;1741;51.294;8.608;2024-03-02T00:16:09;3.80;99.90
3454;DHT22;1741;51.294;8.608;2024-03-02T00:18:34;3.80;99.90
3454;DHT22;1741;51.294;8.608;2024-03-02T00:21:03;3.80;99.90
3454;DHT22;1741;51.294;8.608;2024-03-02T00:23:31;3.70;99.90
3454;DHT22;1741;51.294;8.608;2024-03-02T00:25:59;3.70;99.90
3454;DHT22;1741;51.294;8.608;2024-03-02T00:28:31;3.70;99.90
3454;DHT22;1741;51.294;8.608;2024-03-02T00:31:13;3.60;99.90
3454;DHT22;1741;51.294;8.608;2024-03-02T00:33:46;3.60;99.90
3454;DHT22;1741;51.294;8.608;2024-03-02T00:36:15;3.70;99.90
3454;DHT22;1741;51.294;8.608;2024-03-02T00:38:51;3.70;99.90
3454;DHT22;1741;51.294;8.608;2024-03-02T00:41:31;3.60;99.90
3454;DHT22;1741;51.294;8.608;2024-03-02T00:44:02;3.60;99.90
3454;DHT22;1741;51.294;8.608;2024-03-02T00:46:40;3.60;99.90
3454;DHT22;1741;51.294;8.608;2024-03-02T00:49:30;3.60;99.90
3454;DHT22;1741;51.294;8.608;2024-03-02T00:51:59;3.50;99.90
3454;DHT22;1741;51.294;8.608;2024-03-02T00:54:26;3.50;99.90
3454;DHT22;1741;51.294;8.608;2024-03-02T00:56:55;3.50;99.90
3454;DHT22;1741;51.294;8.608;2024-03-02T00:59:23;3.50;99.90
3454;DHT22;1741;51.294;8.608;2024-03-02T01:01:51;3.50;99.90
3454;DHT22;1741;51.294;8.608;2024-03-02T01:04:18;3.50;99.90
3454;DHT22;1741;51.294;8.608;2024-03-02T01:06:45;3.60;99.90
3454;DHT22;1741;51.294;8.608;2024-03-02T01:09:14;3.60;99.90
3454;DHT22;1741;51.294;8.608;2024-03-02T01:11:41;3.60;99.90
3454;DHT22;1741;51.294;8.608;2024-03-02T01:14:10;3.60;99.90
3454;DHT22;1741;51.294;8.608;2024-03-02T01:16:38;3.60;99.90
3454;DHT22;1741;51.294;8.608;2024-03-02T01:19:06;3.60;99.90
3454;DHT22;1741;51.294;8.608;2024-03-02T01:21:34;3.60;99.90
3454;DHT22;1741;51.294;8.608;2024-03-02T01:24:02;3.70;99.90
3454;DHT22;1741;51.294;8.608;2024-03-02T01:26:29;3.70;99.90
3454;DHT22;1741;51.294;8.608;2024-03-02T01:28:56;3.70;99.90
3454;DHT22;1741;51.294;8.608;2024-03-02T01:31:22;3.80;99.90
3454;DHT22;1741;51.294;8.608;2024-03-02T01:33:51;3.80;99.90
3454;DHT22;1741;51.294;8.608;2024-03-02T01:36:20;3.90;99.90
3454;DHT22;1741;51.294;8.608;2024-03-02T01:38:49;3.90;99.90
3454;DHT22;1741;51.294;8.608;2024-03-02T01:41:17;3.90;99.90
3454;DHT22;1741;51.294;8.608;2024-03-02T01:43:46;3.90;99.90
3454;DHT22;1741;51.294;8.608;2024-03-02T01:46:14;4.00;99.90
3454;DHT22;1741;51.294;8.608;2024-03-02T01:48:41;4.00;99.90
3454;DHT22;1741;51.294;8.608;2024-03-02T01:51:09;4.10;99.90
3454;DHT22;1741;51.294;8.608;2024-03-02T01:53:37;4.10;99.90
3454;DHT22;1741;51.294;8.608;2024-03-02T01:56:04;4.10;99.90
3454;DHT22;1741;51.294;8.608;2024-03-02T01:58:32;4.10;99.90
3454;DHT22;1741;51.294;8.608;2024-03-02T02:00:59;4.00;99.90
3454;DHT22;1741;51.294;8.608;2024-03-02T02:03:27;4.00;99.90
3454;DHT22;1741;51.294;8.608;2024-03-02T02:05:54;4.00;99.90
3454;DHT22;1741;51.294;8.608;2024-03-02T02:08:21;3.90;99.90
3454;DHT22;1741;51.294;8.608;2024-03-02T02:10:49;3.90;99.90
3454;DHT22;1741;51.294;8.608;2024-03-02T02:13:17;4.00;99.90
3454;DHT22;1741;51.294;8.608;2024-03-02T02:15:44;4.00;99.90
3454;DHT22;1741;51.294;8.608;2024-03-02T02:18:12;4.00;99.90
3454;DHT22;1741;51.294;8.608;2024-03-02T02:20:39;4.00;99.90
3454;DHT22;1741;51.294;8.608;2024-03-02T02:23:06;4.00;99.90
3454;DHT22;1741;51.294;8.608;2024-03-02T02:25:35;4.00;99.90
3454;DHT22;1741;51.294;8.608;2024-03-02T02:28:02;4.00;99.90
3454;DHT22;1741;51.294;8.608;2024-03-02T02:30:32;4.00;99.90
3454;DHT22;1741;51.294;8.608;2024-03-02T02:33:00;4.00;99.90
3454;DHT22;1741;51.294;8.608;2024-03-02T02:35:28;3.90;99.90
3454;DHT22;1741;51.294;8.608;2024-03-02T02:37:57;3.90;99.90
3454;DHT22;1741;51.294;8.608;2024-03-02T02:40:25;3.90;99.90
3454;DHT22;1741;51.294;8.608;2024-03-02T02:42:52;3.90;99.90
3454;DHT22;1741;51.294;8.608;2024-03-02T02:45:20;3.90;99.90
3454;DHT22;1741;51.294;8.608;2024-03-02T02:47:47;3.90;99.90
3454;DHT22;1741;51.294;8.608;2024-03-02T02:50:14;3.80;99.90
3454;DHT22;1741;51.294;8.608;2024-03-02T02:52:42;3.90;99.90
3454;DHT22;1741;51.294;8.608;2024-03-02T02:55:11;3.90;99.90
3454;DHT22;1741;51.294;8.608;2024-03-02T02:57:42;3.80;99.90
3454;DHT22;1741;51.294;8.608;2024-03-02T03:00:15;3.80;99.90
3454;DHT22;1741;51.294;8.608;2024-03-02T03:02:46;3.90;99.90
3454;DHT22;1741;51.294;8.608;2024-03-02T03:05:17;3.90;99.90
3454;DHT22;1741;51.294;8.608;2024-03-02T03:07:44;4.00;99.90
3454;DHT22;1741;51.294;8.608;2024-03-02T03:10:13;4.00;99.90
3454;DHT22;1741;51.294;8.608;2024-03-02T03:12:42;4.00;99.90
3454;DHT22;1741;51.294;8.608;2024-03-02T03:15:11;3.90;99.90
3454;DHT22;1741;51.294;8.608;2024-03-02T03:17:40;3.90;99.90
3454;DHT22;1741;51.294;8.608;2024-03-02T03:20:09;3.90;99.90
3454;DHT22;1741;51.294;8.608;2024-03-02T03:22:38;3.90;99.90
3454;DHT22;1741;51.294;8.608;2024-03-02T03:25:07;4.00;99.90
3454;DHT22;1741;51.294;8.608;2024-03-02T03:27:37;4.00;99.90
3454;DHT22;1741;51.294;8.608;2024-03-02T03:30:05;4.10;99.90
3454;DHT22;1741;51.294;8.608;2024-03-02T03:32:35;4.20;99.90
3454;DHT22;1741;51.294;8.608;2024-03-02T03:35:04;4.30;99.90
3454;DHT22;1741;51.294;8.608;2024-03-02T03:37:31;4.30;99.90
3454;DHT22;1741;51.294;8.608;2024-03-02T03:40:02;4.30;99.90
3454;DHT22;1741;51.294;8.608;2024-03-02T03:42:30;4.30;99.90
3454;DHT22;1741;51.294;8.608;2024-03-02T03:44:57;4.40;99.90
3454;DHT22;1741;51.294;8.608;2024-03-02T03:47:24;4.50;99.90
3454;DHT22;1741;51.294;8.608;2024-03-02T03:49:52;4.50;99.90
3454;DHT22;1741;51.294;8.608;2024-03-02T03:52:21;4.50;99.90
3454;DHT22;1741;51.294;8.608;2024-03-02T03:54:49;4.40;99.90
3454;DHT22;1741;51.294;8.608;2024-03-02T03:57:16;4.50;99.90
3454;DHT22;1741;51.294;8.608;2024-03-02T03:59:43;4.50;99.90
3454;DHT22;1741;51.294;8.608;2024-03-02T04:02:11;4.60;99.90
3454;DHT22;1741;51.294;8.608;2024-03-02T04:04:41;4.60;99.90
3454;DHT22;1741;51.294;8.608;2024-03-02T04:07:08;4.60;99.90
3454;DHT22;1741;51.294;8.608;2024-03-02T04:09:35;4.70;99.90
3454;DHT22;1741;51.294;8.608;2024-03-02T04:12:02;4.60;99.90
3454;DHT22;1741;51.294;8.608;2024-03-02T04:14:32;4.50;99.90
3454;DHT22;1741;51.294;8.608;2024-03-02T04:16:59;4.30;99.90
3454;DHT22;1741;51.294;8.608;2024-03-02T04:19:27;4.50;99.90
3454;DHT22;1741;51.294;8.608;2024-03-02T04:21:54;4.60;99.90
3454;DHT22;1741;51.294;8.608;2024-03-02T04:24:21;4.60;99.90
3454;DHT22;1741;51.294;8.608;2024-03-02T04:26:48;4.60;99.90
3454;DHT22;1741;51.294;8.608;2024-03-02T04:29:15;4.60;99.90
3454;DHT22;1741;51.294;8.608;2024-03-02T04:31:43;4.70;99.90
3454;DHT22;1741;51.294;8.608;2024-03-02T04:34:10;4.60;99.90
3454;DHT22;1741;51.294;8.608;2024-03-02T04:36:37;4.60;99.90
3454;DHT22;1741;51.294;8.608;2024-03-02T04:39:04;4.50;99.90
3454;DHT22;1741;51.294;8.608;2024-03-02T04:41:32;4.50;99.90
3454;DHT22;1741;51.294;8.608;2024-03-02T04:43:59;4.50;99.90
3454;DHT22;1741;51.294;8.608;2024-03-02T04:46:26;4.50;99.90
3454;DHT22;1741;51.294;8.608;2024-03-02T04:48:53;4.50;99.90
3454;DHT22;1741;51.294;8.608;2024-03-02T04:51:24;4.50;99.90
3454;DHT22;1741;51.294;8.608;2024-03-02T04:53:52;4.40;99.90
3454;DHT22;1741;51.294;8.608;2024-03-02T04:56:19;4.30;99.90
3454;DHT22;1741;51.294;8.608;2024-03-02T04:58:59;4.40;99.90
3454;DHT22;1741;51.294;8.608;2024-03-02T05:01:26;4.40;99.90
3454;DHT22;1741;51.294;8.608;2024-03-02T05:03:53;4.40;99.90
3454;DHT22;1741;51.294;8.608;2024-03-02T05:06:21;4.40;99.90
3454;DHT22;1741;51.294;8.608;2024-03-02T05:08:48;4.20;99.90
3454;DHT22;1741;51.294;8.608;2024-03-02T05:11:15;4.20;99.90
3454;DHT22;1741;51.294;8.608;2024-03-02T05:14:01;4.10;99.90
3454;DHT22;1741;51.294;8.608;2024-03-02T05:16:28;3.90;99.90
3454;DHT22;1741;51.294;8.608;2024-03-02T05:18:55;3.90;99.90
3454;DHT22;1741;51.294;8.608;2024-03-02T05:21:23;3.90;99.90
3454;DHT22;1741;51.294;8.608;2024-03-02T05:23:50;3.90;99.90
3454;DHT22;1741;51.294;8.608;2024-03-02T05:26:17;3.80;99.90
3454;DHT22;1741;51.294;8.608;2024-03-02T05:28:44;3.80;99.90
3454;DHT22;1741;51.294;8.608;2024-03-02T05:31:11;3.80;99.90
3454;DHT22;1741;51.294;8.608;2024-03-02T05:33:42;3.80;99.90
3454;DHT22;1741;51.294;8.608;2024-03-02T05:36:10;3.90;99.90
3454;DHT22;1741;51.294;8.608;2024-03-02T05:38:38;3.90;99.90
3454;DHT22;1741;51.294;8.608;2024-03-02T05:41:06;3.80;99.90
3454;DHT22;1741;51.294;8.608;2024-03-02T05:43:34;3.90;99.90
3454;DHT22;1741;51.294;8.608;2024-03-02T05:46:01;3.90;99.90
3454;DHT22;1741;51.294;8.608;2024-03-02T05:48:29;3.90;99.90
3454;DHT22;1741;51.294;8.608;2024-03-02T05:50:56;3.80;99.90
3454;DHT22;1741;51.294;8.608;2024-03-02T05:53:25;3.80;99.90
3454;DHT22;1741;51.294;8.608;2024-03-02T05:55:53;3.70;99.90
3454;DHT22;1741;51.294;8.608;2024-03-02T05:58:24;3.60;99.90
3454;DHT22;1741;51.294;8.608;2024-03-02T06:00:51;3.70;99.90
3454;DHT22;1741;51.294;8.608;2024-03-02T06:03:19;3.70;99.90
3454;DHT22;1741;51.294;8.608;2024-03-02T06:05:47;3.70;99.90
3454;DHT22;1741;51.294;8.608;2024-03-02T06:08:17;3.70;99.90
3454;DHT22;1741;51.294;8.608;2024-03-02T06:10:44;3.70;99.90
3454;DHT22;1741;51.294;8.608;2024-03-02T06:13:12;3.70;99.90
3454;DHT22;1741;51.294;8.608;2024-03-02T06:15:39;3.70;99.90
3454;DHT22;1741;51.294;8.608;2024-03-02T06:18:06;3.70;99.90
3454;DHT22;1741;51.294;8.608;2024-03-02T06:20:36;3.70;99.90
3454;DHT22;1741;51.294;8.608;2024-03-02T06:23:05;3.60;99.90
3454;DHT22;1741;51.294;8.608;2024-03-02T06:25:32;3.60;99.90
3454;DHT22;1741;51.294;8.608;2024-03-02T06:27:59;3.60;99.90
3454;DHT22;1741;51.294;8.608;2024-03-02T06:30:27;3.70;99.90
3454;DHT22;1741;51.294;8.608;2024-03-02T06:32:54;3.70;99.90
3454;DHT22;1741;51.294;8.608;2024-03-02T06:35:22;3.70;99.90
3454;DHT22;1741;51.294;8.608;2024-03-02T06:37:49;3.60;99.90
3454;DHT22;1741;51.294;8.608;2024-03-02T06:40:18;3.60;99.90
3454;DHT22;1741;51.294;8.608;2024-03-02T06:42:45;3.60;99.90
3454;DHT22;1741;51.294;8.608;2024-03-02T06:45:13;3.60;99.90
3454;DHT22;1741;51.294;8.608;2024-03-02T06:47:40;3.60;99.90
3454;DHT22;1741;51.294;8.608;2024-03-02T06:50:07;3.60;99.90
3454;DHT22;1741;51.294;8.608;2024-03-02T06:52:35;3.60;99.90
3454;DHT22;1741;51.294;8.608;2024-03-02T06:55:04;3.60;99.90
3454;DHT22;1741;51.294;8.608;2024-03-02T06:57:33;3.50;99.90
3454;DHT22;1741;51.294;8.608;2024-03-02T07:00:06;3.50;99.90
3454;DHT22;1741;51.294;8.608;2024-03-02T07:02:35;3.50;99.90
3454;DHT22;1741;51.294;8.608;2024-03-02T07:05:03;3.50;99.90
3454;DHT22;1741;51.294;8.608;2024-03-02T07:07:31;3.50;99.90
3454;DHT22;1741;51.294;8.608;2024-03-02T07:09:59;3.50;99.90
3454;DHT22;1741;51.294;8.608;2024-03-02T07:12:26;3.50;99.90
3454;DHT22;1741;51.294;8.608;2024-03-02T07:14:53;3.50;99.90
3454;DHT22;1741;51.294;8.608;2024-03-02T07:17:37;3.50;99.90
3454;DHT22;1741;51.294;8.608;2024-03-02T07:20:05;3.50;99.90
3454;DHT22;1741;51.294;8.608;2024-03-02T07:22:35;3.50;99.90
3454;DHT22;1741;51.294;8.608;2024-03-02T07:25:11;3.50;99.90
3454;DHT22;1741;51.294;8.608;2024-03-02T07:27:42;3.50;99.90
3454;DHT22;1741;51.294;8.608;2024-03-02T07:30:13;3.50;99.90
3454;DHT22;1741;51.294;8.608;2024-03-02T07:32:41;3.50;99.90
3454;DHT22;1741;51.294;8.608;2024-03-02T07:35:16;3.60;99.90
3454;DHT22;1741;51.294;8.608;2024-03-02T07:37:43;3.70;99.90
3454;DHT22;1741;51.294;8.608;2024-03-02T07:40:11;3.70;99.90
3454;DHT22;1741;51.294;8.608;2024-03-02T07:42:39;3.60;99.90
3454;DHT22;1741;51.294;8.608;2024-03-02T07:45:10;3.60;99.90
3454;DHT22;1741;51.294;8.608;2024-03-02T07:47:39;3.70;99.90
3454;DHT22;1741;51.294;8.608;2024-03-02T07:50:06;3.70;99.90
3454;DHT22;1741;51.294;8.608;2024-03-02T07:52:34;3.80;99.90
3454;DHT22;1741;51.294;8.608;2024-03-02T07:55:01;3.80;99.90
3454;DHT22;1741;51.294;8.608;2024-03-02T07:57:28;3.90;99.90
3454;DHT22;1741;51.294;8.608;2024-03-02T07:59:56;3.90;99.90
3454;DHT22;1741;51.294;8.608;2024-03-02T08:02:23;4.00;99.90
3454;DHT22;1741;51.294;8.608;2024-03-02T08:04:50;4.10;99.90
3454;DHT22;1741;51.294;8.608;2024-03-02T08:07:17;4.20;99.90
3454;DHT22;1741;51.294;8.608;2024-03-02T08:09:46;4.20;99.90
3454;DHT22;1741;51.294;8.608;2024-03-02T08:12:13;4.30;99.90
3454;DHT22;1741;51.294;8.608;2024-03-02T08:14:41;4.40;99.90
3454;DHT22;1741;51.294;8.608;2024-03-02T08:17:08;4.50;99.90
3454;DHT22;1741;51.294;8.608;2024-03-02T08:19:37;4.50;99.90
3454;DHT22;1741;51.294;8.608;2024-03-02T08:22:04;4.60;99.90
3454;DHT22;1741;51.294;8.608;2024-03-02T08:24:32;4.70;99.90
3454;DHT22;1741;51.294;8.608;2024-03-02T08:27:00;4.80;99.90
3454;DHT22;1741;51.294;8.608;2024-03-02T08:29:27;5.00;99.90
3454;DHT22;1741;51.294;8.608;2024-03-02T08:31:54;5.10;99.90
3454;DHT22;1741;51.294;8.608;2024-03-02T08:34:21;5.20;99.90
3454;DHT22;1741;51.294;8.608;2024-03-02T08:36:48;5.30;99.90
3454;DHT22;1741;51.294;8.608;2024-03-02T08:39:16;5.30;99.90
3454;DHT22;1741;51.294;8.608;2024-03-02T08:41:47;5.40;99.90
3454;DHT22;1741;51.294;8.608;2024-03-02T08:44:15;5.30;99.90
3454;DHT22;1741;51.294;8.608;2024-03-02T08:46:43;5.40;99.90
3454;DHT22;1741;51.294;8.608;2024-03-02T08:49:11;5.40;99.90
3454;DHT22;1741;51.294;8.608;2024-03-02T08:51:39;5.40;99.90
3454;DHT22;1741;51.294;8.608;2024-03-02T08:54:06;5.50;99.90
3454;DHT22;1741;51.294;8.608;2024-03-02T08:56:33;5.50;99.90
3454;DHT22;1741;51.294;8.608;2024-03-02T08:59:02;5.60;99.90
3454;DHT22;1741;51.294;8.608;2024-03-02T09:01:30;5.60;99.90
3454;DHT22;1741;51.294;8.608;2024-03-02T09:03:57;5.60;99.90
3454;DHT22;1741;51.294;8.608;2024-03-02T09:06:24;5.60;99.90
3454;DHT22;1741;51.294;8.608;2024-03-02T09:08:51;5.70;99.90
3454;DHT22;1741;51.294;8.608;2024-03-02T09:11:20;5.80;99.90
3454;DHT22;1741;51.294;8.608;2024-03-02T09:13:48;5.80;99.90
3454;DHT22;1741;51.294;8.608;2024-03-02T09:16:16;5.90;99.90
3454;DHT22;1741;51.294;8.608;2024-03-02T09:18:44;6.00;99.90
3454;DHT22;1741;51.294;8.608;2024-03-02T09:21:11;6.10;99.90
3454;DHT22;1741;51.294;8.608;2024-03-02T09:23:40;6.10;99.90
3454;DHT22;1741;51.294;8.608;2024-03-02T09:26:07;6.10;99.90
3454;DHT22;1741;51.294;8.608;2024-03-02T09:28:34;6.10;99.90
3454;DHT22;1741;51.294;8.608;2024-03-02T09:31:01;6.20;99.90
3454;DHT22;1741;51.294;8.608;2024-03-02T09:33:30;6.20;99.90
3454;DHT22;1741;51.294;8.608;2024-03-02T09:35:58;6.30;99.90
3454;DHT22;1741;51.294;8.608;2024-03-02T09:38:25;6.30;99.90
3454;DHT22;1741;51.294;8.608;2024-03-02T09:40:53;6.40;99.90
3454;DHT22;1741;51.294;8.608;2024-03-02T09:43:23;6.40;99.90
3454;DHT22;1741;51.294;8.608;2024-03-02T09:45:54;6.50;99.90
3454;DHT22;1741;51.294;8.608;2024-03-02T09:48:21;6.50;99.90
3454;DHT22;1741;51.294;8.608;2024-03-02T09:50:50;6.50;99.90
3454;DHT22;1741;51.294;8.608;2024-03-02T09:53:19;6.50;99.90
3454;DHT22;1741;51.294;8.608;2024-03-02T09:55:48;6.50;99.90
3454;DHT22;1741;51.294;8.608;2024-03-02T09:58:15;6.60;99.90
3454;DHT22;1741;51.294;8.608;2024-03-02T10:00:42;6.70;99.90
3454;DHT22;1741;51.294;8.608;2024-03-02T10:03:13;6.80;99.90
3454;DHT22;1741;51.294;8.608;2024-03-02T10:05:40;6.90;99.90
3454;DHT22;1741;51.294;8.608;2024-03-02T10:08:08;7.00;99.90
3454;DHT22;1741;51.294;8.608;2024-03-02T10:10:44;7.10;99.90
3454;DHT22;1741;51.294;8.608;2024-03-02T10:13:14;7.20;99.90
3454;DHT22;1741;51.294;8.608;2024-03-02T10:15:43;7.30;99.90
3454;DHT22;1741;51.294;8.608;2024-03-02T10:18:11;7.30;99.90
3454;DHT22;1741;51.294;8.608;2024-03-02T10:20:42;7.30;99.90
3454;DHT22;1741;51.294;8.608;2024-03-02T10:23:14;7.40;99.90
3454;DHT22;1741;51.294;8.608;2024-03-02T10:25:42;7.50;99.90
3454;DHT22;1741;51.294;8.608;2024-03-02T10:28:23;7.60;99.90
3454;DHT22;1741;51.294;8.608;2024-03-02T10:30:51;7.60;99.90
3454;DHT22;1741;51.294;8.608;2024-03-02T10:33:20;7.70;99.90
3454;DHT22;1741;51.294;8.608;2024-03-02T10:35:50;7.70;99.90
3454;DHT22;1741;51.294;8.608;2024-03-02T10:38:17;7.70;99.90
3454;DHT22;1741;51.294;8.608;2024-03-02T10:40:47;7.70;99.90
3454;DHT22;1741;51.294;8.608;2024-03-02T10:43:18;7.80;99.90
3454;DHT22;1741;51.294;8.608;2024-03-02T10:45:49;7.70;99.90
3454;DHT22;1741;51.294;8.608;2024-03-02T10:48:18;7.70;99.90
3454;DHT22;1741;51.294;8.608;2024-03-02T10:50:47;7.70;99.90
3454;DHT22;1741;51.294;8.608;2024-03-02T10:53:18;7.70;99.90
3454;DHT22;1741;51.294;8.608;2024-03-02T10:55:48;7.90;99.90
3454;DHT22;1741;51.294;8.608;2024-03-02T10:58:20;8.10;99.90
3454;DHT22;1741;51.294;8.608;2024-03-02T11:00:47;8.30;99.90
3454;DHT22;1741;51.294;8.608;2024-03-02T11:03:15;8.40;99.90
3454;DHT22;1741;51.294;8.608;2024-03-02T11:05:47;8.50;99.90
3454;DHT22;1741;51.294;8.608;2024-03-02T11:08:18;8.60;99.90
3454;DHT22;1741;51.294;8.608;2024-03-02T11:10:57;8.60;99.90
3454;DHT22;1741;51.294;8.608;2024-03-02T11:13:33;8.60;99.90
3454;DHT22;1741;51.294;8.608;2024-03-02T11:18:48;8.80;99.90
3454;DHT22;1741;51.294;8.608;2024-03-02T11:21:17;9.00;99.90
3454;DHT22;1741;51.294;8.608;2024-03-02T11:23:47;9.20;99.90
3454;DHT22;1741;51.294;8.608;2024-03-02T11:26:22;9.30;99.90
3454;DHT22;1741;51.294;8.608;2024-03-02T11:28:52;9.50;99.90
3454;DHT22;1741;51.294;8.608;2024-03-02T11:31:19;9.50;99.90
3454;DHT22;1741;51.294;8.608;2024-03-02T11:33:47;9.40;99.90
3454;DHT22;1741;51.294;8.608;2024-03-02T11:36:16;9.50;99.90
3454;DHT22;1741;51.294;8.608;2024-03-02T11:38:47;9.70;99.90
3454;DHT22;1741;51.294;8.608;2024-03-02T11:41:15;9.90;99.90
3454;DHT22;1741;51.294;8.608;2024-03-02T11:43:42;10.00;99.90
3454;DHT22;1741;51.294;8.608;2024-03-02T11:46:12;9.90;99.90
3454;DHT22;1741;51.294;8.608;2024-03-02T11:48:41;9.80;99.90
3454;DHT22;1741;51.294;8.608;2024-03-02T11:51:08;9.80;99.90
3454;DHT22;1741;51.294;8.608;2024-03-02T11:53:38;9.70;99.90
3454;DHT22;1741;51.294;8.608;2024-03-02T11:56:06;9.80;99.90
3454;DHT22;1741;51.294;8.608;2024-03-02T11:58:40;9.90;99.90
3454;DHT22;1741;51.294;8.608;2024-03-02T12:01:08;10.00;99.90
3454;DHT22;1741;51.294;8.608;2024-03-02T12:03:37;10.20;99.90
3454;DHT22;1741;51.294;8.608;2024-03-02T12:06:05;10.30;99.90
3454;DHT22;1741;51.294;8.608;2024-03-02T12:08:34;10.40;99.90
3454;DHT22;1741;51.294;8.608;2024-03-02T12:11:02;10.40;99.90
3454;DHT22;1741;51.294;8.608;2024-03-02T12:13:31;10.40;99.90
3454;DHT22;1741;51.294;8.608;2024-03-02T12:15:58;10.40;99.90
3454;DHT22;1741;51.294;8.608;2024-03-02T12:18:26;10.30;99.90
3454;DHT22;1741;51.294;8.608;2024-03-02T12:20:54;10.40;99.90
3454;DHT22;1741;51.294;8.608;2024-03-02T12:23:27;10.60;99.90
3454;DHT22;1741;51.294;8.608;2024-03-02T12:25:56;10.70;99.90
3454;DHT22;1741;51.294;8.608;2024-03-02T12:28:24;10.90;99.90
3454;DHT22;1741;51.294;8.608;2024-03-02T12:30:51;10.90;99.90
3454;DHT22;1741;51.294;8.608;2024-03-02T12:33:19;11.00;99.90
3454;DHT22;1741;51.294;8.608;2024-03-02T12:35:51;10.90;99.90
3454;DHT22;1741;51.294;8.608;2024-03-02T12:38:18;10.90;99.90
3454;DHT22;1741;51.294;8.608;2024-03-02T12:40:48;10.80;99.90
3454;DHT22;1741;51.294;8.608;2024-03-02T12:43:18;10.90;99.90
3454;DHT22;1741;51.294;8.608;2024-03-02T12:45:45;10.90;99.90
3454;DHT22;1741;51.294;8.608;2024-03-02T12:48:13;10.80;99.90
3454;DHT22;1741;51.294;8.608;2024-03-02T12:50:42;10.80;99.90
3454;DHT22;1741;51.294;8.608;2024-03-02T12:53:16;11.00;99.90
3454;DHT22;1741;51.294;8.608;2024-03-02T12:55:44;11.00;99.90
3454;DHT22;1741;51.294;8.608;2024-03-02T12:58:22;11.00;99.90
3454;DHT22;1741;51.294;8.608;2024-03-02T13:00:49;11.00;99.90
3454;DHT22;1741;51.294;8.608;2024-03-02T13:03:21;11.00;99.90
3454;DHT22;1741;51.294;8.608;2024-03-02T13:05:50;11.20;99.90
3454;DHT22;1741;51.294;8.608;2024-03-02T13:08:17;11.20;99.90
3454;DHT22;1741;51.294;8.608;2024-03-02T13:10:45;11.30;99.90
3454;DHT22;1741;51.294;8.608;2024-03-02T13:13:12;11.50;99.90
3454;DHT22;1741;51.294;8.608;2024-03-02T13:15:40;11.70;99.90
3454;DHT22;1741;51.294;8.608;2024-03-02T13:18:07;11.70;99.90
3454;DHT22;1741;51.294;8.608;2024-03-02T13:20:34;11.60;99.90
3454;DHT22;1741;51.294;8.608;2024-03-02T13:23:02;11.50;99.90
3454;DHT22;1741;51.294;8.608;2024-03-02T13:25:31;11.40;99.90
3454;DHT22;1741;51.294;8.608;2024-03-02T13:27:59;11.50;99.90
3454;DHT22;1741;51.294;8.608;2024-03-02T13:30:27;11.60;99.90
3454;DHT22;1741;51.294;8.608;2024-03-02T13:32:55;11.80;99.90
3454;DHT22;1741;51.294;8.608;2024-03-02T13:35:22;11.70;99.90
3454;DHT22;1741;51.294;8.608;2024-03-02T13:37:49;11.40;99.90
3454;DHT22;1741;51.294;8.608;2024-03-02T13:40:17;11.20;99.90
3454;DHT22;1741;51.294;8.608;2024-03-02T13:42:47;11.30;99.90
3454;DHT22;1741;51.294;8.608;2024-03-02T13:45:16;11.00;99.90
3454;DHT22;1741;51.294;8.608;2024-03-02T13:47:43;10.80;99.90
3454;DHT22;1741;51.294;8.608;2024-03-02T13:50:11;11.20;99.90
3454;DHT22;1741;51.294;8.608;2024-03-02T13:52:41;11.20;99.90
3454;DHT22;1741;51.294;8.608;2024-03-02T13:55:09;11.00;99.90
3454;DHT22;1741;51.294;8.608;2024-03-02T13:57:37;10.80;99.90
3454;DHT22;1741;51.294;8.608;2024-03-02T14:00:05;10.80;99.90
3454;DHT22;1741;51.294;8.608;2024-03-02T14:02:40;10.90;99.90
3454;DHT22;1741;51.294;8.608;2024-03-02T14:05:07;10.90;99.90
3454;DHT22;1741;51.294;8.608;2024-03-02T14:07:38;11.00;99.90
3454;DHT22;1741;51.294;8.608;2024-03-02T14:10:05;10.90;99.90
3454;DHT22;1741;51.294;8.608;2024-03-02T14:12:33;11.00;99.90
3454;DHT22;1741;51.294;8.608;2024-03-02T14:15:00;10.90;99.90
3454;DHT22;1741;51.294;8.608;2024-03-02T14:17:33;11.10;99.90
3454;DHT22;1741;51.294;8.608;2024-03-02T14:20:00;11.60;99.90
3454;DHT22;1741;51.294;8.608;2024-03-02T14:22:32;12.20;99.90
3454;DHT22;1741;51.294;8.608;2024-03-02T14:25:02;12.70;99.90
3454;DHT22;1741;51.294;8.608;2024-03-02T14:27:31;13.00;99.90
3454;DHT22;1741;51.294;8.608;2024-03-02T14:30:20;12.80;99.90
3454;DHT22;1741;51.294;8.608;2024-03-02T14:32:48;12.70;99.90
3454;DHT22;1741;51.294;8.608;2024-03-02T14:35:15;13.00;99.90
3454;DHT22;1741;51.294;8.608;2024-03-02T14:37:43;13.00;99.90
3454;DHT22;1741;51.294;8.608;2024-03-02T14:40:11;12.90;99.90
3454;DHT22;1741;51.294;8.608;2024-03-02T14:42:39;12.80;99.90
3454;DHT22;1741;51.294;8.608;2024-03-02T14:45:06;13.00;99.90
3454;DHT22;1741;51.294;8.608;2024-03-02T14:47:34;12.50;99.90
3454;DHT22;1741;51.294;8.608;2024-03-02T14:50:02;12.00;99.90
3454;DHT22;1741;51.294;8.608;2024-03-02T14:52:40;11.80;99.90
3454;DHT22;1741;51.294;8.608;2024-03-02T14:55:10;11.20;99.90
3454;DHT22;1741;51.294;8.608;2024-03-02T14:57:42;10.80;99.90
3454;DHT22;1741;51.294;8.608;2024-03-02T15:00:09;10.50;99.90
3454;DHT22;1741;51.294;8.608;2024-03-02T15:02:38;10.90;99.90
3454;DHT22;1741;51.294;8.608;2024-03-02T15:05:06;11.30;99.90
3454;DHT22;1741;51.294;8.608;2024-03-02T15:07:40;11.80;99.90
3454;DHT22;1741;51.294;8.608;2024-03-02T15:10:11;12.30;99.90
3454;DHT22;1741;51.294;8.608;2024-03-02T15:12:41;12.50;99.90
3454;DHT22;1741;51.294;8.608;2024-03-02T15:15:09;12.20;99.90
3454;DHT22;1741;51.294;8.608;2024-03-02T15:17:38;11.80;99.90
3454;DHT22;1741;51.294;8.608;2024-03-02T15:20:06;11.50;99.90
3454;DHT22;1741;51.294;8.608;2024-03-02T15:22:34;11.00;99.90
3454;DHT22;1741;51.294;8.608;2024-03-02T15:25:01;10.50;99.90
3454;DHT22;1741;51.294;8.608;2024-03-02T15:27:30;10.50;99.90
3454;DHT22;1741;51.294;8.608;2024-03-02T15:30:01;10.50;99.90
3454;DHT22;1741;51.294;8.608;2024-03-02T15:32:30;10.40;99.90
3454;DHT22;1741;51.294;8.608;2024-03-02T15:34:58;10.30;99.90
3454;DHT22;1741;51.294;8.608;2024-03-02T15:37:27;10.20;99.90
3454;DHT22;1741;51.294;8.608;2024-03-02T15:39:54;10.00;99.90
3454;DHT22;1741;51.294;8.608;2024-03-02T15:42:22;9.90;99.90
3454;DHT22;1741;51.294;8.608;2024-03-02T15:44:50;9.80;99.90
3454;DHT22;1741;51.294;8.608;2024-03-02T15:47:17;9.50;99.90
3454;DHT22;1741;51.294;8.608;2024-03-02T15:49:45;9.40;99.90
3454;DHT22;1741;51.294;8.608;2024-03-02T15:52:12;9.20;99.90
3454;DHT22;1741;51.294;8.608;2024-03-02T15:54:42;9.10;99.90
3454;DHT22;1741;51.294;8.608;2024-03-02T15:57:10;9.00;99.90
3454;DHT22;1741;51.294;8.608;2024-03-02T15:59:40;8.90;99.90
3454;DHT22;1741;51.294;8.608;2024-03-02T16:02:07;8.80;99.90
3454;DHT22;1741;51.294;8.608;2024-03-02T16:04:35;8.70;99.90
3454;DHT22;1741;51.294;8.608;2024-03-02T16:07:04;8.60;99.90
3454;DHT22;1741;51.294;8.608;2024-03-02T16:09:32;8.50;99.90
3454;DHT22;1741;51.294;8.608;2024-03-02T16:11:59;8.40;99.90
3454;DHT22;1741;51.294;8.608;2024-03-02T16:14:26;8.30;99.90
3454;DHT22;1741;51.294;8.608;2024-03-02T16:16:53;8.30;99.90
3454;DHT22;1741;51.294;8.608;2024-03-02T16:19:21;8.20;99.90
3454;DHT22;1741;51.294;8.608;2024-03-02T16:21:58;8.20;99.90
3454;DHT22;1741;51.294;8.608;2024-03-02T16:24:26;8.00;99.90
3454;DHT22;1741;51.294;8.608;2024-03-02T16:26:53;7.90;99.90